McGill, Nevada
Current Conditions -  °F | °C
As of 8:53 PM on Monday 20 Oct 2014 (Local Time) from KELY Reporting Station
Clear Clear  
Wind Chill: 14°   Ceiling: Unl
Heat Index: 14°   Visibility: 10mi
Dew Point:   Wind: 18mph
Humidity: 39%   Direction: 160°SSE
Pressure: 29.99"   Gusts: NA
Location:  39.4°N, 114.78°W
Report Text: KELY 210353Z AUTO 16016KT 10SM CLR 14/01 A2999 RMK AO2 SLP077 T01440006
Loading
Personal Weather Stations






























Interactive Weather Map
Tropical Storm Tracking
New forecast layout! Learn more

10-Day Weather Forecast

Advertisements
Track Severe Weather on mobile